sensor_id;sensor_type;location;lat;lon;timestamp;P1;durP1;ratioP1;P2;durP2;ratioP2
16977;SDS011;8605;52.548;4.918;2024-01-16T00:02:13;15.50;;;2.63;;
16977;SDS011;8605;52.548;4.918;2024-01-16T00:04:41;9.67;;;1.70;;
16977;SDS011;8605;52.548;4.918;2024-01-16T00:07:10;10.67;;;2.43;;
16977;SDS011;8605;52.548;4.918;2024-01-16T00:09:38;10.63;;;1.70;;
16977;SDS011;8605;52.548;4.918;2024-01-16T00:12:08;13.80;;;1.73;;
16977;SDS011;8605;52.548;4.918;2024-01-16T00:14:36;12.90;;;1.97;;
16977;SDS011;8605;52.548;4.918;2024-01-16T00:17:04;8.77;;;1.33;;
16977;SDS011;8605;52.548;4.918;2024-01-16T00:19:36;7.27;;;1.30;;
16977;SDS011;8605;52.548;4.918;2024-01-16T00:22:04;14.73;;;1.50;;
16977;SDS011;8605;52.548;4.918;2024-01-16T00:24:34;12.47;;;1.80;;
16977;SDS011;8605;52.548;4.918;2024-01-16T00:27:02;7.23;;;1.50;;
16977;SDS011;8605;52.548;4.918;2024-01-16T00:29:34;10.00;;;1.60;;
16977;SDS011;8605;52.548;4.918;2024-01-16T00:32:01;8.77;;;1.30;;
16977;SDS011;8605;52.548;4.918;2024-01-16T00:34:29;11.37;;;1.70;;
16977;SDS011;8605;52.548;4.918;2024-01-16T00:36:59;7.23;;;1.33;;
16977;SDS011;8605;52.548;4.918;2024-01-16T00:39:26;10.57;;;1.10;;
16977;SDS011;8605;52.548;4.918;2024-01-16T00:41:54;8.60;;;1.10;;
16977;SDS011;8605;52.548;4.918;2024-01-16T00:44:22;6.93;;;1.20;;
16977;SDS011;8605;52.548;4.918;2024-01-16T00:46:50;11.73;;;1.47;;
16977;SDS011;8605;52.548;4.918;2024-01-16T00:49:18;7.07;;;1.50;;
16977;SDS011;8605;52.548;4.918;2024-01-16T00:51:47;6.23;;;1.23;;
16977;SDS011;8605;52.548;4.918;2024-01-16T00:54:16;10.80;;;1.27;;
16977;SDS011;8605;52.548;4.918;2024-01-16T00:56:44;7.87;;;1.10;;
16977;SDS011;8605;52.548;4.918;2024-01-16T00:59:15;8.13;;;1.20;;
16977;SDS011;8605;52.548;4.918;2024-01-16T01:01:43;10.63;;;1.03;;
16977;SDS011;8605;52.548;4.918;2024-01-16T01:04:10;10.07;;;1.20;;
16977;SDS011;8605;52.548;4.918;2024-01-16T01:06:41;8.13;;;1.43;;
16977;SDS011;8605;52.548;4.918;2024-01-16T01:09:09;9.20;;;2.27;;
16977;SDS011;8605;52.548;4.918;2024-01-16T01:11:39;10.47;;;1.57;;
16977;SDS011;8605;52.548;4.918;2024-01-16T01:14:10;4.80;;;1.50;;
16977;SDS011;8605;52.548;4.918;2024-01-16T01:16:38;13.60;;;3.33;;
16977;SDS011;8605;52.548;4.918;2024-01-16T01:19:06;7.67;;;1.30;;
16977;SDS011;8605;52.548;4.918;2024-01-16T01:21:35;6.30;;;1.40;;
16977;SDS011;8605;52.548;4.918;2024-01-16T01:24:03;11.13;;;1.50;;
16977;SDS011;8605;52.548;4.918;2024-01-16T01:26:33;8.77;;;1.50;;
16977;SDS011;8605;52.548;4.918;2024-01-16T01:29:03;19.93;;;2.10;;
16977;SDS011;8605;52.548;4.918;2024-01-16T01:31:31;22.93;;;2.47;;
16977;SDS011;8605;52.548;4.918;2024-01-16T01:33:58;16.93;;;2.17;;
16977;SDS011;8605;52.548;4.918;2024-01-16T01:36:26;8.80;;;1.60;;
16977;SDS011;8605;52.548;4.918;2024-01-16T01:38:54;15.77;;;1.70;;
16977;SDS011;8605;52.548;4.918;2024-01-16T01:41:21;16.00;;;2.20;;
16977;SDS011;8605;52.548;4.918;2024-01-16T01:43:49;17.03;;;1.83;;
16977;SDS011;8605;52.548;4.918;2024-01-16T01:46:19;18.13;;;2.20;;
16977;SDS011;8605;52.548;4.918;2024-01-16T01:48:47;13.93;;;1.83;;
16977;SDS011;8605;52.548;4.918;2024-01-16T01:51:17;15.57;;;1.90;;
16977;SDS011;8605;52.548;4.918;2024-01-16T01:53:47;15.57;;;2.60;;
16977;SDS011;8605;52.548;4.918;2024-01-16T01:56:18;13.70;;;2.43;;
16977;SDS011;8605;52.548;4.918;2024-01-16T01:58:47;13.47;;;2.23;;
16977;SDS011;8605;52.548;4.918;2024-01-16T02:01:17;14.10;;;1.77;;
16977;SDS011;8605;52.548;4.918;2024-01-16T02:03:47;11.30;;;2.10;;
16977;SDS011;8605;52.548;4.918;2024-01-16T02:06:17;9.33;;;1.10;;
16977;SDS011;8605;52.548;4.918;2024-01-16T02:08:45;13.23;;;2.23;;
16977;SDS011;8605;52.548;4.918;2024-01-16T02:11:13;11.30;;;2.17;;
16977;SDS011;8605;52.548;4.918;2024-01-16T02:13:41;9.53;;;1.50;;
16977;SDS011;8605;52.548;4.918;2024-01-16T02:16:18;7.27;;;1.30;;
16977;SDS011;8605;52.548;4.918;2024-01-16T02:18:47;8.47;;;1.80;;
16977;SDS011;8605;52.548;4.918;2024-01-16T02:21:15;9.33;;;1.53;;
16977;SDS011;8605;52.548;4.918;2024-01-16T02:23:47;8.03;;;1.50;;
16977;SDS011;8605;52.548;4.918;2024-01-16T02:26:15;12.37;;;1.60;;
16977;SDS011;8605;52.548;4.918;2024-01-16T02:28:43;11.27;;;1.83;;
16977;SDS011;8605;52.548;4.918;2024-01-16T02:31:11;11.57;;;1.60;;
16977;SDS011;8605;52.548;4.918;2024-01-16T02:33:38;14.97;;;1.40;;
16977;SDS011;8605;52.548;4.918;2024-01-16T02:36:06;4.27;;;1.13;;
16977;SDS011;8605;52.548;4.918;2024-01-16T02:38:35;10.57;;;1.60;;
16977;SDS011;8605;52.548;4.918;2024-01-16T02:41:04;6.70;;;1.27;;
16977;SDS011;8605;52.548;4.918;2024-01-16T02:43:34;8.17;;;1.20;;
16977;SDS011;8605;52.548;4.918;2024-01-16T02:46:02;9.70;;;1.27;;
16977;SDS011;8605;52.548;4.918;2024-01-16T02:48:30;4.30;;;1.30;;
16977;SDS011;8605;52.548;4.918;2024-01-16T02:50:58;6.13;;;1.03;;
16977;SDS011;8605;52.548;4.918;2024-01-16T02:53:26;7.80;;;1.10;;
16977;SDS011;8605;52.548;4.918;2024-01-16T02:55:55;7.43;;;1.10;;
16977;SDS011;8605;52.548;4.918;2024-01-16T02:58:32;7.37;;;0.90;;
16977;SDS011;8605;52.548;4.918;2024-01-16T03:01:00;6.43;;;1.00;;
16977;SDS011;8605;52.548;4.918;2024-01-16T03:03:29;10.40;;;1.30;;
16977;SDS011;8605;52.548;4.918;2024-01-16T03:05:57;10.37;;;1.37;;
16977;SDS011;8605;52.548;4.918;2024-01-16T03:08:26;5.77;;;1.20;;
16977;SDS011;8605;52.548;4.918;2024-01-16T03:10:54;5.17;;;1.30;;
16977;SDS011;8605;52.548;4.918;2024-01-16T03:13:22;2.60;;;1.00;;
16977;SDS011;8605;52.548;4.918;2024-01-16T03:15:51;7.20;;;1.00;;
16977;SDS011;8605;52.548;4.918;2024-01-16T03:18:18;5.57;;;0.80;;
16977;SDS011;8605;52.548;4.918;2024-01-16T03:20:47;4.07;;;0.97;;
16977;SDS011;8605;52.548;4.918;2024-01-16T03:23:14;6.80;;;1.07;;
16977;SDS011;8605;52.548;4.918;2024-01-16T03:25:42;5.17;;;1.30;;
16977;SDS011;8605;52.548;4.918;2024-01-16T03:28:10;7.70;;;1.07;;
16977;SDS011;8605;52.548;4.918;2024-01-16T03:30:38;10.43;;;1.80;;
16977;SDS011;8605;52.548;4.918;2024-01-16T03:33:09;10.53;;;1.30;;
16977;SDS011;8605;52.548;4.918;2024-01-16T03:35:39;5.43;;;1.27;;
16977;SDS011;8605;52.548;4.918;2024-01-16T03:38:10;7.67;;;1.30;;
16977;SDS011;8605;52.548;4.918;2024-01-16T03:40:38;6.37;;;0.83;;
16977;SDS011;8605;52.548;4.918;2024-01-16T03:43:05;8.60;;;1.27;;
16977;SDS011;8605;52.548;4.918;2024-01-16T03:45:36;11.07;;;1.40;;
16977;SDS011;8605;52.548;4.918;2024-01-16T03:48:04;8.87;;;1.87;;
16977;SDS011;8605;52.548;4.918;2024-01-16T03:50:36;12.40;;;1.40;;
16977;SDS011;8605;52.548;4.918;2024-01-16T03:53:04;10.90;;;1.50;;
16977;SDS011;8605;52.548;4.918;2024-01-16T03:55:34;11.57;;;1.60;;
16977;SDS011;8605;52.548;4.918;2024-01-16T03:58:01;10.57;;;2.33;;
16977;SDS011;8605;52.548;4.918;2024-01-16T04:00:29;8.30;;;1.50;;
16977;SDS011;8605;52.548;4.918;2024-01-16T04:02:57;10.50;;;1.37;;
16977;SDS011;8605;52.548;4.918;2024-01-16T04:05:25;10.57;;;1.30;;
16977;SDS011;8605;52.548;4.918;2024-01-16T04:07:56;11.10;;;1.53;;
16977;SDS011;8605;52.548;4.918;2024-01-16T04:10:24;15.13;;;2.03;;
16977;SDS011;8605;52.548;4.918;2024-01-16T04:12:52;14.50;;;1.90;;
16977;SDS011;8605;52.548;4.918;2024-01-16T04:15:20;8.93;;;1.70;;
16977;SDS011;8605;52.548;4.918;2024-01-16T04:17:49;14.50;;;2.10;;
16977;SDS011;8605;52.548;4.918;2024-01-16T04:20:16;15.93;;;2.23;;
16977;SDS011;8605;52.548;4.918;2024-01-16T04:22:45;12.23;;;2.00;;
16977;SDS011;8605;52.548;4.918;2024-01-16T04:25:14;15.73;;;2.30;;
16977;SDS011;8605;52.548;4.918;2024-01-16T04:27:42;13.83;;;1.70;;
16977;SDS011;8605;52.548;4.918;2024-01-16T04:30:10;17.40;;;2.27;;
16977;SDS011;8605;52.548;4.918;2024-01-16T04:32:41;10.90;;;1.73;;
16977;SDS011;8605;52.548;4.918;2024-01-16T04:35:09;11.00;;;1.53;;
16977;SDS011;8605;52.548;4.918;2024-01-16T04:37:37;15.50;;;1.83;;
16977;SDS011;8605;52.548;4.918;2024-01-16T04:40:05;10.37;;;1.77;;
16977;SDS011;8605;52.548;4.918;2024-01-16T04:42:37;8.77;;;1.57;;
16977;SDS011;8605;52.548;4.918;2024-01-16T04:45:05;9.30;;;1.47;;
16977;SDS011;8605;52.548;4.918;2024-01-16T04:47:36;15.63;;;1.93;;
16977;SDS011;8605;52.548;4.918;2024-01-16T04:50:04;9.27;;;1.87;;
16977;SDS011;8605;52.548;4.918;2024-01-16T04:52:34;12.83;;;1.83;;
16977;SDS011;8605;52.548;4.918;2024-01-16T04:55:02;14.83;;;1.90;;
16977;SDS011;8605;52.548;4.918;2024-01-16T04:57:30;11.07;;;2.57;;
16977;SDS011;8605;52.548;4.918;2024-01-16T05:00:00;15.13;;;2.87;;
16977;SDS011;8605;52.548;4.918;2024-01-16T05:02:33;15.53;;;2.40;;
16977;SDS011;8605;52.548;4.918;2024-01-16T05:05:00;13.43;;;2.90;;
16977;SDS011;8605;52.548;4.918;2024-01-16T05:07:28;15.87;;;3.47;;
16977;SDS011;8605;52.548;4.918;2024-01-16T05:09:56;20.10;;;3.67;;
16977;SDS011;8605;52.548;4.918;2024-01-16T05:12:24;12.97;;;3.80;;
16977;SDS011;8605;52.548;4.918;2024-01-16T05:14:52;11.23;;;3.30;;
16977;SDS011;8605;52.548;4.918;2024-01-16T05:17:21;21.67;;;3.33;;
16977;SDS011;8605;52.548;4.918;2024-01-16T05:19:49;11.10;;;3.07;;
16977;SDS011;8605;52.548;4.918;2024-01-16T05:22:17;15.70;;;3.17;;
16977;SDS011;8605;52.548;4.918;2024-01-16T05:24:45;16.10;;;2.63;;
16977;SDS011;8605;52.548;4.918;2024-01-16T05:27:13;10.43;;;2.93;;
16977;SDS011;8605;52.548;4.918;2024-01-16T05:29:40;14.03;;;2.30;;
16977;SDS011;8605;52.548;4.918;2024-01-16T05:32:10;15.97;;;2.73;;
16977;SDS011;8605;52.548;4.918;2024-01-16T05:34:41;11.27;;;2.40;;
16977;SDS011;8605;52.548;4.918;2024-01-16T05:37:09;12.53;;;2.40;;
16977;SDS011;8605;52.548;4.918;2024-01-16T05:39:39;7.83;;;1.90;;
16977;SDS011;8605;52.548;4.918;2024-01-16T05:42:08;16.67;;;2.57;;
16977;SDS011;8605;52.548;4.918;2024-01-16T05:44:39;14.73;;;2.60;;
16977;SDS011;8605;52.548;4.918;2024-01-16T05:47:10;12.40;;;2.10;;
16977;SDS011;8605;52.548;4.918;2024-01-16T05:49:38;13.43;;;2.40;;
16977;SDS011;8605;52.548;4.918;2024-01-16T05:52:09;9.97;;;2.37;;
16977;SDS011;8605;52.548;4.918;2024-01-16T05:54:39;13.97;;;2.17;;
16977;SDS011;8605;52.548;4.918;2024-01-16T05:57:07;9.20;;;1.87;;
16977;SDS011;8605;52.548;4.918;2024-01-16T05:59:36;6.03;;;1.50;;
16977;SDS011;8605;52.548;4.918;2024-01-16T06:02:04;13.17;;;1.60;;
16977;SDS011;8605;52.548;4.918;2024-01-16T06:04:32;6.80;;;1.43;;
16977;SDS011;8605;52.548;4.918;2024-01-16T06:06:59;15.47;;;1.97;;
16977;SDS011;8605;52.548;4.918;2024-01-16T06:09:30;7.73;;;1.40;;
16977;SDS011;8605;52.548;4.918;2024-01-16T06:11:58;15.00;;;1.83;;
16977;SDS011;8605;52.548;4.918;2024-01-16T06:14:26;12.03;;;1.60;;
16977;SDS011;8605;52.548;4.918;2024-01-16T06:16:54;8.43;;;1.70;;
16977;SDS011;8605;52.548;4.918;2024-01-16T06:19:22;8.23;;;1.83;;
16977;SDS011;8605;52.548;4.918;2024-01-16T06:21:49;5.97;;;1.57;;
16977;SDS011;8605;52.548;4.918;2024-01-16T06:24:17;15.63;;;2.30;;
16977;SDS011;8605;52.548;4.918;2024-01-16T06:26:46;12.13;;;1.80;;
16977;SDS011;8605;52.548;4.918;2024-01-16T06:29:14;19.47;;;2.23;;
16977;SDS011;8605;52.548;4.918;2024-01-16T06:31:56;11.53;;;1.90;;
16977;SDS011;8605;52.548;4.918;2024-01-16T06:34:24;14.63;;;2.03;;
16977;SDS011;8605;52.548;4.918;2024-01-16T06:36:52;17.00;;;2.37;;
16977;SDS011;8605;52.548;4.918;2024-01-16T06:39:20;13.83;;;2.00;;
16977;SDS011;8605;52.548;4.918;2024-01-16T06:41:49;20.60;;;2.03;;
16977;SDS011;8605;52.548;4.918;2024-01-16T06:44:18;7.77;;;1.77;;
16977;SDS011;8605;52.548;4.918;2024-01-16T06:46:46;8.33;;;1.97;;
16977;SDS011;8605;52.548;4.918;2024-01-16T06:49:14;8.80;;;2.20;;
16977;SDS011;8605;52.548;4.918;2024-01-16T06:51:41;15.33;;;2.07;;
16977;SDS011;8605;52.548;4.918;2024-01-16T06:54:09;6.90;;;1.80;;
16977;SDS011;8605;52.548;4.918;2024-01-16T06:56:39;13.33;;;2.60;;
16977;SDS011;8605;52.548;4.918;2024-01-16T06:59:09;13.67;;;2.57;;
16977;SDS011;8605;52.548;4.918;2024-01-16T07:01:37;16.03;;;2.40;;
16977;SDS011;8605;52.548;4.918;2024-01-16T07:04:06;10.70;;;1.93;;
16977;SDS011;8605;52.548;4.918;2024-01-16T07:06:36;9.60;;;1.80;;
16977;SDS011;8605;52.548;4.918;2024-01-16T07:09:04;14.43;;;2.40;;
16977;SDS011;8605;52.548;4.918;2024-01-16T07:11:37;6.87;;;1.77;;
16977;SDS011;8605;52.548;4.918;2024-01-16T07:14:06;14.63;;;1.83;;
16977;SDS011;8605;52.548;4.918;2024-01-16T07:16:35;15.90;;;3.23;;
16977;SDS011;8605;52.548;4.918;2024-01-16T07:19:03;18.10;;;2.60;;
16977;SDS011;8605;52.548;4.918;2024-01-16T07:21:34;20.23;;;4.10;;
16977;SDS011;8605;52.548;4.918;2024-01-16T07:24:02;21.57;;;3.60;;
16977;SDS011;8605;52.548;4.918;2024-01-16T07:26:30;15.57;;;3.80;;
16977;SDS011;8605;52.548;4.918;2024-01-16T07:28:58;12.17;;;2.70;;
16977;SDS011;8605;52.548;4.918;2024-01-16T07:31:25;14.00;;;2.97;;
16977;SDS011;8605;52.548;4.918;2024-01-16T07:33:55;10.03;;;2.33;;
16977;SDS011;8605;52.548;4.918;2024-01-16T07:36:22;12.63;;;2.10;;
16977;SDS011;8605;52.548;4.918;2024-01-16T07:38:50;11.47;;;2.73;;
16977;SDS011;8605;52.548;4.918;2024-01-16T07:41:18;9.47;;;2.27;;
16977;SDS011;8605;52.548;4.918;2024-01-16T07:43:46;8.90;;;2.13;;
16977;SDS011;8605;52.548;4.918;2024-01-16T07:46:15;12.77;;;2.50;;
16977;SDS011;8605;52.548;4.918;2024-01-16T07:48:44;19.23;;;3.00;;
16977;SDS011;8605;52.548;4.918;2024-01-16T07:51:16;8.60;;;2.53;;
16977;SDS011;8605;52.548;4.918;2024-01-16T07:53:44;12.33;;;2.87;;
16977;SDS011;8605;52.548;4.918;2024-01-16T07:56:12;15.07;;;2.80;;
16977;SDS011;8605;52.548;4.918;2024-01-16T07:58:40;14.47;;;2.47;;
16977;SDS011;8605;52.548;4.918;2024-01-16T08:01:08;8.97;;;2.50;;
16977;SDS011;8605;52.548;4.918;2024-01-16T08:03:36;11.40;;;2.50;;
16977;SDS011;8605;52.548;4.918;2024-01-16T08:06:05;12.80;;;2.47;;
16977;SDS011;8605;52.548;4.918;2024-01-16T08:08:34;12.67;;;2.93;;
16977;SDS011;8605;52.548;4.918;2024-01-16T08:11:02;18.63;;;2.80;;
16977;SDS011;8605;52.548;4.918;2024-01-16T08:13:30;14.97;;;2.70;;
16977;SDS011;8605;52.548;4.918;2024-01-16T08:15:58;15.07;;;2.93;;
16977;SDS011;8605;52.548;4.918;2024-01-16T08:18:26;14.07;;;2.93;;
16977;SDS011;8605;52.548;4.918;2024-01-16T08:20:54;14.87;;;3.47;;
16977;SDS011;8605;52.548;4.918;2024-01-16T08:23:22;14.07;;;3.30;;
16977;SDS011;8605;52.548;4.918;2024-01-16T08:25:52;14.60;;;3.27;;
16977;SDS011;8605;52.548;4.918;2024-01-16T08:28:19;15.07;;;2.80;;
16977;SDS011;8605;52.548;4.918;2024-01-16T08:30:50;16.30;;;3.10;;
16977;SDS011;8605;52.548;4.918;2024-01-16T08:33:18;14.77;;;2.97;;
16977;SDS011;8605;52.548;4.918;2024-01-16T08:35:59;18.37;;;3.23;;
16977;SDS011;8605;52.548;4.918;2024-01-16T08:38:27;11.20;;;2.87;;
16977;SDS011;8605;52.548;4.918;2024-01-16T08:40:56;12.83;;;3.00;;
16977;SDS011;8605;52.548;4.918;2024-01-16T08:43:24;14.90;;;3.10;;
16977;SDS011;8605;52.548;4.918;2024-01-16T08:45:52;16.57;;;3.27;;
16977;SDS011;8605;52.548;4.918;2024-01-16T08:48:19;18.50;;;4.10;;
16977;SDS011;8605;52.548;4.918;2024-01-16T08:50:47;17.73;;;4.43;;
16977;SDS011;8605;52.548;4.918;2024-01-16T08:53:15;21.37;;;4.30;;
16977;SDS011;8605;52.548;4.918;2024-01-16T08:55:43;16.73;;;4.70;;
16977;SDS011;8605;52.548;4.918;2024-01-16T08:58:12;17.43;;;4.60;;
16977;SDS011;8605;52.548;4.918;2024-01-16T09:00:40;14.03;;;5.00;;
16977;SDS011;8605;52.548;4.918;2024-01-16T09:03:08;18.57;;;4.77;;
16977;SDS011;8605;52.548;4.918;2024-01-16T09:05:36;16.23;;;5.50;;
16977;SDS011;8605;52.548;4.918;2024-01-16T09:08:05;24.50;;;6.50;;
16977;SDS011;8605;52.548;4.918;2024-01-16T09:10:39;18.73;;;5.90;;
16977;SDS011;8605;52.548;4.918;2024-01-16T09:13:06;18.93;;;6.33;;
16977;SDS011;8605;52.548;4.918;2024-01-16T09:15:39;15.17;;;5.63;;
16977;SDS011;8605;52.548;4.918;2024-01-16T09:18:07;15.20;;;5.40;;
16977;SDS011;8605;52.548;4.918;2024-01-16T09:20:35;16.53;;;5.27;;
16977;SDS011;8605;52.548;4.918;2024-01-16T09:23:03;22.00;;;5.27;;
16977;SDS011;8605;52.548;4.918;2024-01-16T09:25:31;14.50;;;4.90;;
16977;SDS011;8605;52.548;4.918;2024-01-16T09:27:59;12.10;;;4.20;;
16977;SDS011;8605;52.548;4.918;2024-01-16T09:30:26;18.07;;;3.73;;
16977;SDS011;8605;52.548;4.918;2024-01-16T09:32:56;18.57;;;3.47;;
16977;SDS011;8605;52.548;4.918;2024-01-16T09:35:23;12.30;;;3.57;;
16977;SDS011;8605;52.548;4.918;2024-01-16T09:37:51;8.40;;;2.90;;
16977;SDS011;8605;52.548;4.918;2024-01-16T09:40:19;12.27;;;3.10;;
16977;SDS011;8605;52.548;4.918;2024-01-16T09:42:47;10.67;;;3.00;;
16977;SDS011;8605;52.548;4.918;2024-01-16T09:45:17;11.80;;;3.00;;
16977;SDS011;8605;52.548;4.918;2024-01-16T09:47:49;10.70;;;2.47;;
16977;SDS011;8605;52.548;4.918;2024-01-16T09:50:19;9.90;;;2.40;;
16977;SDS011;8605;52.548;4.918;2024-01-16T09:52:50;10.53;;;2.00;;
16977;SDS011;8605;52.548;4.918;2024-01-16T09:55:17;11.23;;;2.10;;
16977;SDS011;8605;52.548;4.918;2024-01-16T09:57:45;9.90;;;1.90;;
16977;SDS011;8605;52.548;4.918;2024-01-16T10:00:13;6.97;;;2.00;;
16977;SDS011;8605;52.548;4.918;2024-01-16T10:02:43;11.33;;;1.77;;
16977;SDS011;8605;52.548;4.918;2024-01-16T10:05:11;10.07;;;2.07;;
16977;SDS011;8605;52.548;4.918;2024-01-16T10:07:44;8.77;;;2.03;;
16977;SDS011;8605;52.548;4.918;2024-01-16T10:10:12;9.67;;;2.93;;
16977;SDS011;8605;52.548;4.918;2024-01-16T10:12:49;12.17;;;2.10;;
16977;SDS011;8605;52.548;4.918;2024-01-16T10:15:18;5.87;;;2.17;;
16977;SDS011;8605;52.548;4.918;2024-01-16T10:17:47;10.60;;;1.90;;
16977;SDS011;8605;52.548;4.918;2024-01-16T10:20:15;6.90;;;1.83;;
16977;SDS011;8605;52.548;4.918;2024-01-16T10:22:53;7.07;;;1.80;;
16977;SDS011;8605;52.548;4.918;2024-01-16T10:25:21;11.43;;;1.87;;
16977;SDS011;8605;52.548;4.918;2024-01-16T10:27:49;11.37;;;1.83;;
16977;SDS011;8605;52.548;4.918;2024-01-16T10:30:29;6.47;;;1.83;;
16977;SDS011;8605;52.548;4.918;2024-01-16T10:33:00;9.00;;;1.77;;
16977;SDS011;8605;52.548;4.918;2024-01-16T10:35:43;9.70;;;1.77;;
16977;SDS011;8605;52.548;4.918;2024-01-16T10:38:14;9.90;;;1.90;;
16977;SDS011;8605;52.548;4.918;2024-01-16T10:40:47;6.20;;;1.77;;
16977;SDS011;8605;52.548;4.918;2024-01-16T10:43:15;9.07;;;1.80;;
16977;SDS011;8605;52.548;4.918;2024-01-16T10:45:45;9.17;;;1.90;;
16977;SDS011;8605;52.548;4.918;2024-01-16T10:48:13;13.30;;;1.97;;
16977;SDS011;8605;52.548;4.918;2024-01-16T10:50:42;4.63;;;1.70;;
16977;SDS011;8605;52.548;4.918;2024-01-16T10:53:14;10.10;;;1.90;;
16977;SDS011;8605;52.548;4.918;2024-01-16T10:55:48;13.80;;;2.10;;
16977;SDS011;8605;52.548;4.918;2024-01-16T10:58:18;9.17;;;1.90;;
16977;SDS011;8605;52.548;4.918;2024-01-16T11:00:51;8.83;;;2.50;;
16977;SDS011;8605;52.548;4.918;2024-01-16T11:03:22;12.47;;;2.33;;
16977;SDS011;8605;52.548;4.918;2024-01-16T11:05:54;11.00;;;2.37;;
16977;SDS011;8605;52.548;4.918;2024-01-16T11:08:27;11.77;;;2.07;;
16977;SDS011;8605;52.548;4.918;2024-01-16T11:10:59;13.93;;;2.20;;
16977;SDS011;8605;52.548;4.918;2024-01-16T11:13:28;8.73;;;1.97;;
16977;SDS011;8605;52.548;4.918;2024-01-16T11:15:57;14.03;;;2.17;;
16977;SDS011;8605;52.548;4.918;2024-01-16T11:18:27;6.77;;;1.67;;
16977;SDS011;8605;52.548;4.918;2024-01-16T11:20:57;9.93;;;2.10;;
16977;SDS011;8605;52.548;4.918;2024-01-16T11:23:35;10.60;;;2.17;;
16977;SDS011;8605;52.548;4.918;2024-01-16T11:28:54;16.47;;;2.50;;
16977;SDS011;8605;52.548;4.918;2024-01-16T11:31:30;24.57;;;8.03;;
16977;SDS011;8605;52.548;4.918;2024-01-16T11:33:59;10.33;;;2.63;;
16977;SDS011;8605;52.548;4.918;2024-01-16T11:39:25;10.47;;;2.20;;
16977;SDS011;8605;52.548;4.918;2024-01-16T11:41:54;11.27;;;2.20;;
16977;SDS011;8605;52.548;4.918;2024-01-16T11:44:42;9.03;;;2.37;;
16977;SDS011;8605;52.548;4.918;2024-01-16T11:47:17;12.17;;;2.37;;
16977;SDS011;8605;52.548;4.918;2024-01-16T11:49:46;11.60;;;2.10;;
16977;SDS011;8605;52.548;4.918;2024-01-16T11:52:15;10.80;;;1.97;;
16977;SDS011;8605;52.548;4.918;2024-01-16T11:55:08;9.07;;;2.13;;
16977;SDS011;8605;52.548;4.918;2024-01-16T11:57:56;10.27;;;2.17;;
16977;SDS011;8605;52.548;4.918;2024-01-16T12:00:49;9.77;;;2.10;;
16977;SDS011;8605;52.548;4.918;2024-01-16T12:03:19;7.10;;;1.87;;
16977;SDS011;8605;52.548;4.918;2024-01-16T12:06:00;8.00;;;2.00;;
16977;SDS011;8605;52.548;4.918;2024-01-16T12:08:30;6.17;;;1.70;;
16977;SDS011;8605;52.548;4.918;2024-01-16T12:10:59;9.87;;;1.93;;
16977;SDS011;8605;52.548;4.918;2024-01-16T12:13:27;5.93;;;1.80;;
16977;SDS011;8605;52.548;4.918;2024-01-16T12:16:01;10.43;;;2.50;;
16977;SDS011;8605;52.548;4.918;2024-01-16T12:18:35;7.73;;;1.80;;
16977;SDS011;8605;52.548;4.918;2024-01-16T12:21:11;9.70;;;2.20;;
16977;SDS011;8605;52.548;4.918;2024-01-16T12:23:41;9.10;;;2.33;;
16977;SDS011;8605;52.548;4.918;2024-01-16T12:26:22;8.70;;;1.90;;
16977;SDS011;8605;52.548;4.918;2024-01-16T12:28:51;7.40;;;1.93;;
16977;SDS011;8605;52.548;4.918;2024-01-16T12:31:25;9.20;;;2.13;;
16977;SDS011;8605;52.548;4.918;2024-01-16T12:33:52;11.07;;;2.03;;
16977;SDS011;8605;52.548;4.918;2024-01-16T12:36:29;10.30;;;2.03;;
16977;SDS011;8605;52.548;4.918;2024-01-16T12:38:57;8.90;;;2.00;;
16977;SDS011;8605;52.548;4.918;2024-01-16T12:41:27;8.93;;;1.77;;
16977;SDS011;8605;52.548;4.918;2024-01-16T12:44:08;9.17;;;2.00;;
16977;SDS011;8605;52.548;4.918;2024-01-16T12:46:42;8.83;;;2.20;;
16977;SDS011;8605;52.548;4.918;2024-01-16T12:49:14;6.47;;;1.53;;
16977;SDS011;8605;52.548;4.918;2024-01-16T12:51:42;7.07;;;1.63;;
16977;SDS011;8605;52.548;4.918;2024-01-16T12:54:11;8.83;;;1.73;;
16977;SDS011;8605;52.548;4.918;2024-01-16T12:56:44;6.37;;;1.40;;
16977;SDS011;8605;52.548;4.918;2024-01-16T12:59:12;5.53;;;1.13;;
16977;SDS011;8605;52.548;4.918;2024-01-16T13:01:42;5.23;;;1.37;;
16977;SDS011;8605;52.548;4.918;2024-01-16T13:04:13;7.50;;;1.40;;
16977;SDS011;8605;52.548;4.918;2024-01-16T13:06:46;5.90;;;1.13;;
16977;SDS011;8605;52.548;4.918;2024-01-16T13:09:15;10.13;;;1.67;;
16977;SDS011;8605;52.548;4.918;2024-01-16T13:11:50;5.20;;;1.30;;
16977;SDS011;8605;52.548;4.918;2024-01-16T13:14:19;6.93;;;1.33;;
16977;SDS011;8605;52.548;4.918;2024-01-16T13:16:48;5.27;;;1.10;;
16977;SDS011;8605;52.548;4.918;2024-01-16T13:19:17;5.43;;;1.40;;
16977;SDS011;8605;52.548;4.918;2024-01-16T13:21:46;5.63;;;1.40;;
16977;SDS011;8605;52.548;4.918;2024-01-16T13:24:14;3.90;;;1.43;;
16977;SDS011;8605;52.548;4.918;2024-01-16T13:26:44;4.93;;;1.90;;
16977;SDS011;8605;52.548;4.918;2024-01-16T13:29:13;5.07;;;1.17;;
16977;SDS011;8605;52.548;4.918;2024-01-16T13:31:42;5.63;;;1.40;;
16977;SDS011;8605;52.548;4.918;2024-01-16T13:34:10;4.40;;;1.20;;
16977;SDS011;8605;52.548;4.918;2024-01-16T13:36:39;5.53;;;1.37;;
16977;SDS011;8605;52.548;4.918;2024-01-16T13:39:29;11.70;;;1.77;;
16977;SDS011;8605;52.548;4.918;2024-01-16T13:41:59;8.47;;;1.43;;
16977;SDS011;8605;52.548;4.918;2024-01-16T13:44:28;10.13;;;1.83;;
16977;SDS011;8605;52.548;4.918;2024-01-16T13:46:56;11.00;;;1.70;;
16977;SDS011;8605;52.548;4.918;2024-01-16T13:49:35;4.47;;;1.30;;
16977;SDS011;8605;52.548;4.918;2024-01-16T13:52:04;7.37;;;1.90;;
16977;SDS011;8605;52.548;4.918;2024-01-16T13:54:32;7.07;;;1.53;;
16977;SDS011;8605;52.548;4.918;2024-01-16T13:57:00;4.50;;;1.37;;
16977;SDS011;8605;52.548;4.918;2024-01-16T13:59:35;5.83;;;1.40;;
16977;SDS011;8605;52.548;4.918;2024-01-16T14:02:05;7.10;;;1.60;;
16977;SDS011;8605;52.548;4.918;2024-01-16T14:04:35;5.70;;;1.33;;
16977;SDS011;8605;52.548;4.918;2024-01-16T14:07:03;5.13;;;1.50;;
16977;SDS011;8605;52.548;4.918;2024-01-16T14:09:34;10.67;;;1.73;;
16977;SDS011;8605;52.548;4.918;2024-01-16T14:12:03;11.90;;;1.43;;
16977;SDS011;8605;52.548;4.918;2024-01-16T14:14:37;10.27;;;1.60;;
16977;SDS011;8605;52.548;4.918;2024-01-16T14:17:08;11.23;;;1.67;;
16977;SDS011;8605;52.548;4.918;2024-01-16T14:19:36;8.17;;;1.30;;
16977;SDS011;8605;52.548;4.918;2024-01-16T14:22:05;8.40;;;1.80;;
16977;SDS011;8605;52.548;4.918;2024-01-16T14:24:33;9.80;;;1.83;;
16977;SDS011;8605;52.548;4.918;2024-01-16T14:27:01;8.07;;;1.93;;
16977;SDS011;8605;52.548;4.918;2024-01-16T14:29:29;6.67;;;1.60;;
16977;SDS011;8605;52.548;4.918;2024-01-16T14:31:59;13.80;;;1.63;;
16977;SDS011;8605;52.548;4.918;2024-01-16T14:34:27;5.23;;;1.53;;
16977;SDS011;8605;52.548;4.918;2024-01-16T14:36:55;8.50;;;1.70;;
16977;SDS011;8605;52.548;4.918;2024-01-16T14:39:23;8.90;;;1.70;;
16977;SDS011;8605;52.548;4.918;2024-01-16T14:41:53;13.23;;;2.67;;
16977;SDS011;8605;52.548;4.918;2024-01-16T14:44:21;255.80;;;13.40;;
16977;SDS011;8605;52.548;4.918;2024-01-16T14:46:49;92.63;;;7.23;;
16977;SDS011;8605;52.548;4.918;2024-01-16T14:49:22;23.10;;;2.73;;
16977;SDS011;8605;52.548;4.918;2024-01-16T14:51:50;11.63;;;3.07;;
16977;SDS011;8605;52.548;4.918;2024-01-16T14:54:18;12.80;;;3.07;;
16977;SDS011;8605;52.548;4.918;2024-01-16T14:56:46;9.80;;;2.73;;
16977;SDS011;8605;52.548;4.918;2024-01-16T14:59:15;23.90;;;5.83;;
16977;SDS011;8605;52.548;4.918;2024-01-16T15:01:43;25.27;;;9.40;;
16977;SDS011;8605;52.548;4.918;2024-01-16T15:04:11;20.57;;;7.20;;
16977;SDS011;8605;52.548;4.918;2024-01-16T15:06:41;24.53;;;8.70;;
16977;SDS011;8605;52.548;4.918;2024-01-16T15:09:09;28.17;;;9.60;;
16977;SDS011;8605;52.548;4.918;2024-01-16T15:11:39;25.27;;;10.03;;
16977;SDS011;8605;52.548;4.918;2024-01-16T15:14:11;19.90;;;10.87;;